createdAt,value
2023-03-22T00:00:40.128Z,9.13
2023-03-22T00:01:39.692Z,9.17
2023-03-22T00:02:39.705Z,9.11
2023-03-22T00:03:39.693Z,9.13
2023-03-22T00:04:39.637Z,9.02
2023-03-22T00:05:39.668Z,9.08
2023-03-22T00:06:39.632Z,9.01
2023-03-22T00:07:39.603Z,9.05
2023-03-22T00:08:39.593Z,8.99
2023-03-22T00:09:39.591Z,9.08
2023-03-22T00:10:39.996Z,8.98
2023-03-22T00:11:39.563Z,8.91
2023-03-22T00:12:39.557Z,8.95
2023-03-22T00:13:39.545Z,8.86
2023-03-22T00:14:39.538Z,8.91
2023-03-22T00:15:39.610Z,8.94
2023-03-22T00:16:39.501Z,8.98
2023-03-22T00:17:39.529Z,8.98
2023-03-22T00:18:39.488Z,9.01
2023-03-22T00:19:39.504Z,8.92
2023-03-22T00:20:39.737Z,8.98
2023-03-22T00:21:39.490Z,8.80
2023-03-22T00:22:39.463Z,8.87
2023-03-22T00:23:39.450Z,8.77
2023-03-22T00:24:39.427Z,8.76
2023-03-22T00:25:39.459Z,8.63
2023-03-22T00:26:39.438Z,8.65
2023-03-22T00:27:39.382Z,8.65
2023-03-22T00:28:39.371Z,8.58
2023-03-22T00:29:39.397Z,8.70
2023-03-22T00:30:39.699Z,8.63
2023-03-22T00:31:39.407Z,8.63
2023-03-22T00:32:39.356Z,8.62
2023-03-22T00:33:39.346Z,8.58
2023-03-22T00:34:39.330Z,8.58
2023-03-22T00:35:39.325Z,8.62
2023-03-22T00:36:39.277Z,8.63
2023-03-22T00:37:39.320Z,8.59
2023-03-22T00:38:46.333Z,8.61
2023-03-22T00:39:40.245Z,8.55
2023-03-22T00:40:39.648Z,8.61
2023-03-22T00:41:39.218Z,8.53
2023-03-22T00:42:39.229Z,8.66
2023-03-22T00:43:39.277Z,8.65
2023-03-22T00:44:39.182Z,8.53
2023-03-22T00:45:39.171Z,8.48
2023-03-22T00:46:39.253Z,8.53
2023-03-22T00:47:39.165Z,8.47
2023-03-22T00:48:39.190Z,8.53
2023-03-22T00:49:39.129Z,8.53
2023-03-22T00:50:39.279Z,8.62
2023-03-22T00:51:39.114Z,8.52
2023-03-22T00:52:39.093Z,8.68
2023-03-22T00:53:42.380Z,8.68
2023-03-22T00:54:39.091Z,8.73
2023-03-22T00:55:39.065Z,8.81
2023-03-22T00:56:39.045Z,8.76
2023-03-22T00:57:39.053Z,8.91
2023-03-22T00:58:39.052Z,8.79
2023-03-22T00:59:39.042Z,8.74
2023-03-22T01:00:39.235Z,8.70
2023-03-22T01:01:38.996Z,8.81
2023-03-22T01:02:38.981Z,8.73
2023-03-22T01:03:39.007Z,8.63
2023-03-22T01:04:39.005Z,8.66
2023-03-22T01:05:38.960Z,8.66
2023-03-22T01:06:38.974Z,8.71
2023-03-22T01:07:38.932Z,8.76
2023-03-22T01:08:39.305Z,8.73
2023-03-22T01:09:38.952Z,8.62
2023-03-22T01:10:39.097Z,8.63
2023-03-22T01:11:38.881Z,8.66
2023-03-22T01:12:38.882Z,8.65
2023-03-22T01:13:38.854Z,8.59
2023-03-22T01:14:38.865Z,8.58
2023-03-22T01:15:38.857Z,8.59
2023-03-22T01:16:38.888Z,8.52
2023-03-22T01:17:38.833Z,8.53
2023-03-22T01:18:38.797Z,8.56
2023-03-22T01:19:38.812Z,8.47
2023-03-22T01:20:39.228Z,8.45
2023-03-22T01:21:38.761Z,8.43
2023-03-22T01:22:38.757Z,8.43
2023-03-22T01:23:38.748Z,8.40
2023-03-22T01:24:38.731Z,8.48
2023-03-22T01:25:38.767Z,8.50
2023-03-22T01:26:38.708Z,8.37
2023-03-22T01:27:38.700Z,8.47
2023-03-22T01:28:38.713Z,8.40
2023-03-22T01:29:38.677Z,8.37
2023-03-22T01:30:39.010Z,8.43
2023-03-22T01:31:38.670Z,8.36
2023-03-22T01:32:38.658Z,8.44
2023-03-22T01:33:38.646Z,8.29
2023-03-22T01:34:38.616Z,8.33
2023-03-22T01:35:38.618Z,8.41
2023-03-22T01:36:38.597Z,8.44
2023-03-22T01:37:38.608Z,8.47
2023-03-22T01:38:38.573Z,8.47
2023-03-22T01:39:38.568Z,8.48
2023-03-22T01:40:38.971Z,8.52
2023-03-22T01:41:38.558Z,8.53
2023-03-22T01:42:38.546Z,8.61
2023-03-22T01:43:38.516Z,8.61
2023-03-22T01:44:38.509Z,8.53
2023-03-22T01:45:38.508Z,8.56
2023-03-22T01:46:38.541Z,8.47
2023-03-22T01:47:38.504Z,8.44
2023-03-22T01:48:38.624Z,8.50
2023-03-22T01:49:38.479Z,8.48
2023-03-22T01:50:38.865Z,8.47
2023-03-22T01:51:38.427Z,8.50
2023-03-22T01:52:38.418Z,8.47
2023-03-22T01:53:38.414Z,8.50
2023-03-22T01:54:38.402Z,8.52
2023-03-22T01:55:38.417Z,8.52
2023-03-22T01:56:38.379Z,8.45
2023-03-22T01:57:38.381Z,8.47
2023-03-22T01:58:38.378Z,8.50
2023-03-22T01:59:38.350Z,8.63
2023-03-22T02:00:38.648Z,8.65
2023-03-22T02:01:38.353Z,8.55
2023-03-22T02:02:38.351Z,8.62
2023-03-22T02:03:38.327Z,8.63
2023-03-22T02:04:38.375Z,8.68
2023-03-22T02:05:38.318Z,8.68
2023-03-22T02:06:38.382Z,8.66
2023-03-22T02:07:38.270Z,8.70
2023-03-22T02:08:38.230Z,8.65
2023-03-22T02:09:38.249Z,8.81
2023-03-22T02:10:38.509Z,8.74
2023-03-22T02:11:38.203Z,8.81
2023-03-22T02:12:38.199Z,8.86
2023-03-22T02:13:38.206Z,8.83
2023-03-22T02:14:38.175Z,8.94
2023-03-22T02:15:38.253Z,8.89
2023-03-22T02:16:38.158Z,8.86
2023-03-22T02:17:38.150Z,8.84
2023-03-22T02:18:38.143Z,8.73
2023-03-22T02:19:38.121Z,8.77
2023-03-22T02:20:38.444Z,8.68
2023-03-22T02:21:38.126Z,8.76
2023-03-22T02:22:38.075Z,8.74
2023-03-22T02:23:38.077Z,8.92
2023-03-22T02:24:38.066Z,8.87
2023-03-22T02:25:38.081Z,8.86
2023-03-22T02:26:38.068Z,8.87
2023-03-22T02:27:38.034Z,8.95
2023-03-22T02:28:38.018Z,8.92
2023-03-22T02:29:38.091Z,8.95
2023-03-22T02:30:38.447Z,8.98
2023-03-22T02:31:38.093Z,8.96
2023-03-22T02:32:37.965Z,8.96
2023-03-22T02:33:39.861Z,8.99
2023-03-22T02:34:37.945Z,9.01
2023-03-22T02:35:38.118Z,8.95
2023-03-22T02:36:37.955Z,9.08
2023-03-22T02:37:37.909Z,9.02
2023-03-22T02:38:37.920Z,8.99
2023-03-22T02:39:37.885Z,9.05
2023-03-22T02:40:38.283Z,9.04
2023-03-22T02:41:37.871Z,9.05
2023-03-22T02:42:37.862Z,9.05
2023-03-22T02:43:37.849Z,9.11
2023-03-22T02:44:37.861Z,9.11
2023-03-22T02:45:37.865Z,9.17
2023-03-22T02:46:37.893Z,9.20
2023-03-22T02:47:37.815Z,9.05
2023-03-22T02:48:37.817Z,9.13
2023-03-22T02:49:37.778Z,9.13
2023-03-22T02:50:38.238Z,9.11
2023-03-22T02:51:37.758Z,9.01
2023-03-22T02:52:37.749Z,8.96
2023-03-22T02:53:37.756Z,8.92
2023-03-22T02:54:37.724Z,8.94
2023-03-22T02:55:37.739Z,9.04
2023-03-22T02:56:37.700Z,9.11
2023-03-22T02:57:37.703Z,9.11
2023-03-22T02:58:37.682Z,9.11
2023-03-22T02:59:37.694Z,9.14
2023-03-22T03:00:38.170Z,9.15
2023-03-22T03:01:37.694Z,9.08
2023-03-22T03:02:37.635Z,9.02
2023-03-22T03:03:37.672Z,9.10
2023-03-22T03:04:37.630Z,8.99
2023-03-22T03:05:37.596Z,8.96
2023-03-22T03:06:37.587Z,8.96
2023-03-22T03:07:37.570Z,8.91
2023-03-22T03:08:37.558Z,8.89
2023-03-22T03:09:37.572Z,8.89
2023-03-22T03:10:37.995Z,8.83
2023-03-22T03:11:37.526Z,8.91
2023-03-22T03:12:37.540Z,8.91
2023-03-22T03:13:37.533Z,8.86
2023-03-22T03:14:37.498Z,8.76
2023-03-22T03:15:37.490Z,8.83
2023-03-22T03:16:37.532Z,8.84
2023-03-22T03:17:37.544Z,8.74
2023-03-22T03:18:37.456Z,8.86
2023-03-22T03:19:37.441Z,8.84
2023-03-22T03:20:37.708Z,8.83
2023-03-22T03:21:37.420Z,8.83
2023-03-22T03:22:37.412Z,8.84
2023-03-22T03:23:37.411Z,8.81
2023-03-22T03:24:37.413Z,8.76
2023-03-22T03:25:37.369Z,8.81
2023-03-22T03:26:37.364Z,8.73
2023-03-22T03:27:37.344Z,8.66
2023-03-22T03:28:37.352Z,8.70
2023-03-22T03:29:37.332Z,8.70
2023-03-22T03:30:37.522Z,8.70
2023-03-22T03:31:37.344Z,8.66
2023-03-22T03:32:37.295Z,8.63
2023-03-22T03:33:37.319Z,8.62
2023-03-22T03:34:37.294Z,8.58
2023-03-22T03:35:37.294Z,8.55
2023-03-22T03:36:37.243Z,8.50
2023-03-22T03:37:37.239Z,8.45
2023-03-22T03:38:37.232Z,8.44
2023-03-22T03:39:37.254Z,8.48
2023-03-22T03:40:37.431Z,8.45
2023-03-22T03:41:37.188Z,8.41
2023-03-22T03:42:37.179Z,8.37
2023-03-22T03:43:37.190Z,8.28
2023-03-22T03:44:37.183Z,8.28
2023-03-22T03:45:37.274Z,8.33
2023-03-22T03:46:37.154Z,8.30
2023-03-22T03:47:37.138Z,8.30
2023-03-22T03:48:37.123Z,8.18
2023-03-22T03:49:37.126Z,8.16
2023-03-22T03:50:37.343Z,8.12
2023-03-22T03:51:37.075Z,8.22
2023-03-22T03:52:37.082Z,8.15
2023-03-22T03:53:37.054Z,8.11
2023-03-22T03:54:37.039Z,8.00
2023-03-22T03:55:37.038Z,8.04
2023-03-22T03:56:37.039Z,7.93
2023-03-22T03:57:37.019Z,7.98
2023-03-22T03:58:36.996Z,8.01
2023-03-22T03:59:37.000Z,7.98
2023-03-22T04:00:37.119Z,7.97
2023-03-22T04:01:36.961Z,7.90
2023-03-22T04:02:37.034Z,7.95
2023-03-22T04:03:36.948Z,7.97
2023-03-22T04:04:37.020Z,7.95
2023-03-22T04:05:36.964Z,7.93
2023-03-22T04:06:36.914Z,7.97
2023-03-22T04:07:36.900Z,8.01
2023-03-22T04:08:36.895Z,8.01
2023-03-22T04:09:36.901Z,7.98
2023-03-22T04:10:37.055Z,7.87
2023-03-22T04:11:36.860Z,7.89
2023-03-22T04:12:36.842Z,7.87
2023-03-22T04:13:36.830Z,7.87
2023-03-22T04:14:36.839Z,7.74
2023-03-22T04:15:36.809Z,7.83
2023-03-22T04:16:36.861Z,7.75
2023-03-22T04:17:36.807Z,7.79
2023-03-22T04:18:36.797Z,7.74
2023-03-22T04:19:36.794Z,7.80
2023-03-22T04:20:36.988Z,7.74
2023-03-22T04:21:36.756Z,7.80
2023-03-22T04:22:36.731Z,7.68
2023-03-22T04:23:36.730Z,7.71
2023-03-22T04:24:36.724Z,7.68
2023-03-22T04:25:36.710Z,7.71
2023-03-22T04:26:36.682Z,7.64
2023-03-22T04:27:36.692Z,7.67
2023-03-22T04:28:36.685Z,7.64
2023-03-22T04:29:36.704Z,7.61
2023-03-22T04:30:36.764Z,7.58
2023-03-22T04:31:36.632Z,7.57
2023-03-22T04:32:36.616Z,7.50
2023-03-22T04:33:36.635Z,7.46
2023-03-22T04:34:36.593Z,7.63
2023-03-22T04:35:36.649Z,7.45
2023-03-22T04:36:36.643Z,7.61
2023-03-22T04:37:36.597Z,7.50
2023-03-22T04:38:36.544Z,7.46
2023-03-22T04:39:36.560Z,7.46
2023-03-22T04:40:36.614Z,7.46
2023-03-22T04:41:36.532Z,7.61
2023-03-22T04:42:36.565Z,7.48
2023-03-22T04:43:36.487Z,7.53
2023-03-22T04:44:36.469Z,7.42
2023-03-22T04:45:36.502Z,7.46
2023-03-22T04:46:36.625Z,7.45
2023-03-22T04:47:36.446Z,7.42
2023-03-22T04:48:36.435Z,7.49
2023-03-22T04:49:36.423Z,7.46
2023-03-22T04:50:36.435Z,7.39
2023-03-22T04:51:36.419Z,7.43
2023-03-22T04:52:36.390Z,7.45
2023-03-22T04:53:36.412Z,7.40
2023-03-22T04:54:36.363Z,7.37
2023-03-22T04:55:36.355Z,7.40
2023-03-22T04:56:36.362Z,7.45
2023-03-22T04:57:36.330Z,7.46
2023-03-22T04:58:36.356Z,7.52
2023-03-22T04:59:36.313Z,7.45
2023-03-22T05:00:36.294Z,7.48
2023-03-22T05:01:36.380Z,7.53
2023-03-22T05:02:36.332Z,7.53
2023-03-22T05:03:36.266Z,7.45
2023-03-22T05:04:36.275Z,7.42
2023-03-22T05:05:36.261Z,7.40
2023-03-22T05:06:36.303Z,7.50
2023-03-22T05:07:36.281Z,7.61
2023-03-22T05:08:36.339Z,7.71
2023-03-22T05:09:36.234Z,7.53
2023-03-22T05:10:36.187Z,7.63
2023-03-22T05:11:36.207Z,7.60
2023-03-22T05:12:36.157Z,7.58
2023-03-22T05:13:36.179Z,7.60
2023-03-22T05:14:36.237Z,7.64
2023-03-22T05:15:36.128Z,7.57
2023-03-22T05:16:36.118Z,7.63
2023-03-22T05:17:36.102Z,7.60
2023-03-22T05:18:36.117Z,7.61
2023-03-22T05:19:36.092Z,7.61
2023-03-22T05:20:36.074Z,7.58
2023-03-22T05:21:36.055Z,7.64
2023-03-22T05:22:36.045Z,7.58
2023-03-22T05:23:36.051Z,7.69
2023-03-22T05:24:36.061Z,7.67
2023-03-22T05:25:36.037Z,7.53
2023-03-22T05:26:36.023Z,7.64
2023-03-22T05:27:36.032Z,7.49
2023-03-22T05:28:35.982Z,7.53
2023-03-22T05:29:35.989Z,7.43
2023-03-22T05:30:35.981Z,7.61
2023-03-22T05:31:35.965Z,7.49
2023-03-22T05:32:35.933Z,7.46
2023-03-22T05:33:35.929Z,7.50
2023-03-22T05:34:36.195Z,7.50
2023-03-22T05:35:35.923Z,7.48
2023-03-22T05:36:35.916Z,7.43
2023-03-22T05:37:35.878Z,7.37
2023-03-22T05:38:35.868Z,7.30
2023-03-22T05:39:35.868Z,7.32
2023-03-22T05:40:35.862Z,7.27
2023-03-22T05:41:36.751Z,7.31
2023-03-22T05:42:35.823Z,7.27
2023-03-22T05:43:35.849Z,7.25
2023-03-22T05:44:35.812Z,7.27
2023-03-22T05:45:35.793Z,7.24
2023-03-22T05:46:35.828Z,7.27
2023-03-22T05:47:35.800Z,7.37
2023-03-22T05:48:35.749Z,7.32
2023-03-22T05:49:35.753Z,7.39
2023-03-22T05:50:35.727Z,7.34
2023-03-22T05:51:35.750Z,7.42
2023-03-22T05:52:35.730Z,7.42
2023-03-22T05:53:35.701Z,7.40
2023-03-22T05:54:35.694Z,7.45
2023-03-22T05:55:35.681Z,7.48
2023-03-22T05:56:35.680Z,7.53
2023-03-22T05:57:35.699Z,7.53
2023-03-22T05:58:35.643Z,7.71
2023-03-22T05:59:35.634Z,7.74
2023-03-22T06:00:35.626Z,7.86
2023-03-22T06:01:35.801Z,7.87
2023-03-22T06:02:35.604Z,7.93
2023-03-22T06:03:35.740Z,7.97
2023-03-22T06:04:35.581Z,8.00
2023-03-22T06:05:35.574Z,8.10
2023-03-22T06:06:35.606Z,8.16
2023-03-22T06:07:35.551Z,8.22
2023-03-22T06:08:35.535Z,8.16
2023-03-22T06:09:35.518Z,8.18
2023-03-22T06:10:35.504Z,8.29
2023-03-22T06:11:35.494Z,8.47
2023-03-22T06:12:35.512Z,8.45
2023-03-22T06:13:35.508Z,8.45
2023-03-22T06:14:35.468Z,8.56
2023-03-22T06:15:35.455Z,8.66
2023-03-22T06:16:35.463Z,8.59
2023-03-22T06:17:35.465Z,8.62
2023-03-22T06:18:35.446Z,8.65
2023-03-22T06:19:35.417Z,8.61
2023-03-22T06:20:35.419Z,8.62
2023-03-22T06:21:35.388Z,8.61
2023-03-22T06:22:35.392Z,8.53
2023-03-22T06:23:35.366Z,8.56
2023-03-22T06:24:35.351Z,8.66
2023-03-22T06:25:35.349Z,8.71
2023-03-22T06:26:35.352Z,8.70
2023-03-22T06:27:35.486Z,8.83
2023-03-22T06:28:35.309Z,8.76
2023-03-22T06:29:35.325Z,8.83
2023-03-22T06:30:35.305Z,8.95
2023-03-22T06:31:35.300Z,8.95
2023-03-22T06:32:35.264Z,9.08
2023-03-22T06:33:35.249Z,9.02
2023-03-22T06:34:35.242Z,9.05
2023-03-22T06:35:35.298Z,9.15
2023-03-22T06:36:35.236Z,9.14
2023-03-22T06:37:35.240Z,9.18
2023-03-22T06:38:35.192Z,9.13
2023-03-22T06:39:35.185Z,9.13
2023-03-22T06:40:35.167Z,9.17
2023-03-22T06:41:35.180Z,9.20
2023-03-22T06:42:35.149Z,9.33
2023-03-22T06:43:35.161Z,9.39
2023-03-22T06:44:35.120Z,9.53
2023-03-22T06:45:35.133Z,9.39
2023-03-22T06:46:35.093Z,9.50
2023-03-22T06:47:35.129Z,9.48
2023-03-22T06:48:35.080Z,9.47
2023-03-22T06:49:35.064Z,9.51
2023-03-22T06:50:35.097Z,9.61
2023-03-22T06:51:35.036Z,9.60
2023-03-22T06:52:35.032Z,9.58
2023-03-22T06:53:35.053Z,9.75
2023-03-22T06:54:35.015Z,9.84
2023-03-22T06:55:34.995Z,9.84
2023-03-22T06:56:34.985Z,9.90
2023-03-22T06:57:35.017Z,9.93
2023-03-22T06:58:34.957Z,9.89
2023-03-22T06:59:34.954Z,9.91
2023-03-22T07:00:34.934Z,9.93
2023-03-22T07:01:35.134Z,9.90
2023-03-22T07:02:34.928Z,9.96
2023-03-22T07:03:34.912Z,9.99
2023-03-22T07:04:35.010Z,10.07
2023-03-22T07:05:34.882Z,10.09
2023-03-22T07:06:34.888Z,10.04
2023-03-22T07:07:34.862Z,10.04
2023-03-22T07:08:34.881Z,10.05
2023-03-22T07:09:34.831Z,10.05
2023-03-22T07:10:34.840Z,10.02
2023-03-22T07:11:34.839Z,10.01
2023-03-22T07:12:34.803Z,10.04
2023-03-22T07:13:34.856Z,10.07
2023-03-22T07:14:34.815Z,10.02
2023-03-22T07:15:34.853Z,9.96
2023-03-22T07:16:34.763Z,10.02
2023-03-22T07:17:34.796Z,10.14
2023-03-22T07:18:34.768Z,10.17
2023-03-22T07:19:34.736Z,10.18
2023-03-22T07:20:34.709Z,10.27
2023-03-22T07:21:34.742Z,10.34
2023-03-22T07:22:34.693Z,10.34
2023-03-22T07:23:34.677Z,10.51
2023-03-22T07:24:36.058Z,10.52
2023-03-22T07:25:34.665Z,10.48
2023-03-22T07:26:34.700Z,10.59
2023-03-22T07:27:34.630Z,10.60
2023-03-22T07:28:34.618Z,10.60
2023-03-22T07:29:34.614Z,10.67
2023-03-22T07:30:34.604Z,10.74
2023-03-22T07:31:37.126Z,10.76
2023-03-22T07:32:34.609Z,10.84
2023-03-22T07:33:34.611Z,10.97
2023-03-22T07:34:34.548Z,10.96
2023-03-22T07:35:34.546Z,10.97
2023-03-22T07:36:34.536Z,11.04
2023-03-22T07:37:34.546Z,11.04
2023-03-22T07:38:34.542Z,11.18
2023-03-22T07:39:34.505Z,11.28
2023-03-22T07:40:34.500Z,11.39
2023-03-22T07:41:34.601Z,11.51
2023-03-22T07:42:34.492Z,11.58
2023-03-22T07:43:47.342Z,11.62
2023-03-22T07:44:35.465Z,11.67
2023-03-22T07:45:34.435Z,11.67
2023-03-22T07:46:34.495Z,11.85
2023-03-22T07:47:41.042Z,11.86
2023-03-22T07:48:35.434Z,11.88
2023-03-22T07:49:34.429Z,11.90
2023-03-22T07:50:34.437Z,11.90
2023-03-22T07:51:34.380Z,11.94
2023-03-22T07:52:34.358Z,12.09
2023-03-22T07:53:34.370Z,12.02
2023-03-22T07:54:34.707Z,12.14
2023-03-22T07:55:34.332Z,12.07
2023-03-22T07:56:34.349Z,12.12
2023-03-22T07:57:34.303Z,12.16
2023-03-22T07:58:34.290Z,12.27
2023-03-22T07:59:34.299Z,12.41
2023-03-22T08:00:34.265Z,12.52
2023-03-22T08:01:34.412Z,12.56
2023-03-22T08:02:34.263Z,12.60
2023-03-22T08:03:34.232Z,12.68
2023-03-22T08:04:34.238Z,12.75
2023-03-22T08:05:34.229Z,12.83
2023-03-22T08:06:34.204Z,12.93
2023-03-22T08:07:34.216Z,12.96
2023-03-22T08:08:34.176Z,13.03
2023-03-22T08:09:34.162Z,13.28
2023-03-22T08:10:34.162Z,13.25
2023-03-22T08:11:34.175Z,13.23
2023-03-22T08:12:34.138Z,13.30
2023-03-22T08:13:34.132Z,13.28
2023-03-22T08:14:37.077Z,13.32
2023-03-22T08:15:34.166Z,13.38
2023-03-22T08:16:34.178Z,13.48
2023-03-22T08:17:34.083Z,13.45
2023-03-22T08:18:34.075Z,13.45
2023-03-22T08:19:34.058Z,13.48
2023-03-22T08:20:34.071Z,13.71
2023-03-22T08:21:34.131Z,13.63
2023-03-22T08:22:34.015Z,13.75
2023-03-22T08:23:41.399Z,13.69
2023-03-22T08:24:34.989Z,13.77
2023-03-22T08:25:33.980Z,13.52
2023-03-22T08:26:33.990Z,13.57
2023-03-22T08:27:33.966Z,13.52
2023-03-22T08:28:33.948Z,13.59
2023-03-22T08:29:33.954Z,13.51
2023-03-22T08:30:33.926Z,13.49
2023-03-22T08:31:33.968Z,13.49
2023-03-22T08:32:33.927Z,13.36
2023-03-22T08:33:33.895Z,13.33
2023-03-22T08:34:33.879Z,13.26
2023-03-22T08:35:33.902Z,13.23
2023-03-22T08:36:33.885Z,13.15
2023-03-22T08:37:33.863Z,13.23
2023-03-22T08:38:33.838Z,13.39
2023-03-22T08:39:33.850Z,13.45
2023-03-22T08:40:33.830Z,13.48
2023-03-22T08:41:33.826Z,13.41
2023-03-22T08:42:33.794Z,13.39
2023-03-22T08:43:33.776Z,13.45
2023-03-22T08:44:33.785Z,13.45
2023-03-22T08:45:33.755Z,13.57
2023-03-22T08:46:33.842Z,13.60
2023-03-22T08:47:33.738Z,13.67
2023-03-22T08:48:33.721Z,13.73
2023-03-22T08:49:33.703Z,13.77
2023-03-22T08:50:33.696Z,13.70
2023-03-22T08:51:33.689Z,13.92
2023-03-22T08:52:33.700Z,13.96
2023-03-22T08:53:33.685Z,14.17
2023-03-22T08:54:33.764Z,14.20
2023-03-22T08:55:33.670Z,14.15
2023-03-22T08:56:33.630Z,14.02
2023-03-22T08:57:33.618Z,13.95
2023-03-22T08:58:33.617Z,13.73
2023-03-22T08:59:33.611Z,13.55
2023-03-22T09:00:45.939Z,13.45
2023-03-22T09:01:34.658Z,13.29
2023-03-22T09:02:33.590Z,13.10
2023-03-22T09:03:33.566Z,13.07
2023-03-22T09:04:33.617Z,12.95
2023-03-22T09:05:33.524Z,12.93
2023-03-22T09:06:33.547Z,12.87
2023-03-22T09:07:33.515Z,12.71
2023-03-22T09:08:33.497Z,12.64
2023-03-22T09:09:33.523Z,12.45
2023-03-22T09:10:33.504Z,12.38
2023-03-22T09:11:33.511Z,12.38
2023-03-22T09:12:33.445Z,12.37
2023-03-22T09:13:33.465Z,12.28
2023-03-22T09:14:33.446Z,12.24
2023-03-22T09:15:33.451Z,12.24
2023-03-22T09:16:33.451Z,12.09
2023-03-22T09:17:33.398Z,12.04
2023-03-22T09:18:33.377Z,12.04
2023-03-22T09:19:34.423Z,12.05
2023-03-22T09:20:33.375Z,12.12
2023-03-22T09:21:33.359Z,12.24
2023-03-22T09:22:33.366Z,12.20
2023-03-22T09:23:33.331Z,12.34
2023-03-22T09:24:33.324Z,12.39
2023-03-22T09:25:33.346Z,12.47
2023-03-22T09:26:33.314Z,12.46
2023-03-22T09:27:33.283Z,12.34
2023-03-22T09:28:33.348Z,12.31
2023-03-22T09:29:33.285Z,12.41
2023-03-22T09:30:33.248Z,12.47
2023-03-22T09:31:33.282Z,12.47
2023-03-22T09:32:33.217Z,12.54
2023-03-22T09:33:33.224Z,12.67
2023-03-22T09:34:33.202Z,12.62
2023-03-22T09:35:33.220Z,12.75
2023-03-22T09:36:33.177Z,12.72
2023-03-22T09:37:33.156Z,12.96
2023-03-22T09:38:33.191Z,12.97
2023-03-22T09:39:33.144Z,13.19
2023-03-22T09:40:33.137Z,13.29
2023-03-22T09:41:33.136Z,13.52
2023-03-22T09:42:33.114Z,13.48
2023-03-22T09:43:33.273Z,13.55
2023-03-22T09:44:33.121Z,13.55
2023-03-22T09:45:33.078Z,13.48
2023-03-22T09:46:33.100Z,13.54
2023-03-22T09:47:43.952Z,13.62
2023-03-22T09:48:34.057Z,13.54
2023-03-22T09:49:43.599Z,13.62
2023-03-22T09:50:34.021Z,13.62
2023-03-22T09:51:33.012Z,13.55
2023-03-22T09:52:33.074Z,13.42
2023-03-22T09:53:32.976Z,13.44
2023-03-22T09:54:33.001Z,13.39
2023-03-22T09:55:32.964Z,13.44
2023-03-22T09:56:32.955Z,13.42
2023-03-22T09:57:33.000Z,13.52
2023-03-22T09:58:32.982Z,13.55
2023-03-22T09:59:32.928Z,13.42
2023-03-22T10:00:33.092Z,13.49
2023-03-22T10:01:33.055Z,13.52
2023-03-22T10:02:33.033Z,13.48
2023-03-22T10:03:32.869Z,13.57
2023-03-22T10:04:32.962Z,13.41
2023-03-22T10:05:32.837Z,13.46
2023-03-22T10:06:32.830Z,13.45
2023-03-22T10:07:32.846Z,13.45
2023-03-22T10:08:32.836Z,13.57
2023-03-22T10:09:32.819Z,13.57
2023-03-22T10:10:32.798Z,13.60
2023-03-22T10:11:32.771Z,13.59
2023-03-22T10:12:32.803Z,13.75
2023-03-22T10:13:32.903Z,13.84
2023-03-22T10:14:32.742Z,13.89
2023-03-22T10:15:32.732Z,14.07
2023-03-22T10:16:32.806Z,14.00
2023-03-22T10:17:32.707Z,14.14
2023-03-22T10:18:32.714Z,14.12
2023-03-22T10:19:32.710Z,14.20
2023-03-22T10:20:32.694Z,14.12
2023-03-22T10:21:32.663Z,14.02
2023-03-22T10:22:32.668Z,13.97
2023-03-22T10:23:32.640Z,13.95
2023-03-22T10:24:32.624Z,13.95
2023-03-22T10:25:32.642Z,13.84
2023-03-22T10:26:32.630Z,13.92
2023-03-22T10:27:32.659Z,13.79
2023-03-22T10:28:32.645Z,13.88
2023-03-22T10:29:32.592Z,13.87
2023-03-22T10:30:32.601Z,13.82
2023-03-22T10:31:32.647Z,13.66
2023-03-22T10:32:32.542Z,13.70
2023-03-22T10:33:32.638Z,13.81
2023-03-22T10:34:32.547Z,14.02
2023-03-22T10:35:32.563Z,14.00
2023-03-22T10:36:32.502Z,14.17
2023-03-22T10:37:32.472Z,14.24
2023-03-22T10:38:32.485Z,14.27
2023-03-22T10:39:32.480Z,14.39
2023-03-22T10:40:32.452Z,14.33
2023-03-22T10:41:32.494Z,14.25
2023-03-22T10:42:32.420Z,14.39
2023-03-22T10:43:32.513Z,14.37
2023-03-22T10:44:32.426Z,14.32
2023-03-22T10:45:32.421Z,14.15
2023-03-22T10:46:32.406Z,14.24
2023-03-22T10:47:32.379Z,14.17
2023-03-22T10:48:32.438Z,14.12
2023-03-22T10:49:32.352Z,14.10
2023-03-22T10:50:32.332Z,14.15
2023-03-22T10:51:32.322Z,14.09
2023-03-22T10:52:32.312Z,14.09
2023-03-22T10:53:32.409Z,14.15
2023-03-22T10:54:32.287Z,14.17
2023-03-22T10:55:32.301Z,14.25
2023-03-22T10:56:32.264Z,14.37
2023-03-22T10:57:32.252Z,14.46
2023-03-22T10:58:32.260Z,14.65
2023-03-22T10:59:32.240Z,14.60
2023-03-22T11:00:32.327Z,14.61
2023-03-22T11:01:32.520Z,14.70
2023-03-22T11:02:32.412Z,14.72
2023-03-22T11:03:32.279Z,14.73
2023-03-22T11:04:32.182Z,14.72
2023-03-22T11:05:32.160Z,14.84
2023-03-22T11:06:32.161Z,14.94
2023-03-22T11:07:32.170Z,14.81
2023-03-22T11:08:32.132Z,14.69
2023-03-22T11:09:32.132Z,14.58
2023-03-22T11:10:32.248Z,14.73
2023-03-22T11:11:32.099Z,14.73
2023-03-22T11:12:32.113Z,14.64
2023-03-22T11:13:32.074Z,14.45
2023-03-22T11:14:32.145Z,14.54
2023-03-22T11:15:32.071Z,14.52
2023-03-22T11:16:32.133Z,14.61
2023-03-22T11:17:32.048Z,14.70
2023-03-22T11:18:32.017Z,14.68
2023-03-22T11:19:32.002Z,14.73
2023-03-22T11:20:32.061Z,14.60
2023-03-22T11:21:31.988Z,14.69
2023-03-22T11:22:31.977Z,14.57
2023-03-22T11:23:31.959Z,14.65
2023-03-22T11:24:31.988Z,14.77
2023-03-22T11:25:31.957Z,14.65
2023-03-22T11:26:31.951Z,14.73
2023-03-22T11:27:31.909Z,14.86
2023-03-22T11:28:31.919Z,14.78
2023-03-22T11:29:31.920Z,14.95
2023-03-22T11:30:31.885Z,14.91
2023-03-22T11:31:31.919Z,14.92
2023-03-22T11:32:31.876Z,14.92
2023-03-22T11:33:31.859Z,14.86
2023-03-22T11:34:31.867Z,14.96
2023-03-22T11:35:31.896Z,15.02
2023-03-22T11:36:31.861Z,15.16
2023-03-22T11:37:31.828Z,15.16
2023-03-22T11:38:31.793Z,15.14
2023-03-22T11:39:31.779Z,15.07
2023-03-22T11:40:31.789Z,15.07
2023-03-22T11:41:31.789Z,15.20
2023-03-22T11:42:31.745Z,15.13
2023-03-22T11:43:31.730Z,15.13
2023-03-22T11:44:31.732Z,15.10
2023-03-22T11:45:31.722Z,15.06
2023-03-22T11:46:31.773Z,15.20
2023-03-22T11:47:31.765Z,15.21
2023-03-22T11:48:31.904Z,14.91
2023-03-22T11:49:31.722Z,14.86
2023-03-22T11:50:31.686Z,14.72
2023-03-22T11:51:31.655Z,14.95
2023-03-22T11:52:31.647Z,14.91
2023-03-22T11:53:31.616Z,14.89
2023-03-22T11:54:31.609Z,14.89
2023-03-22T11:55:31.625Z,15.03
2023-03-22T11:56:31.624Z,15.09
2023-03-22T11:57:31.606Z,15.19
2023-03-22T11:58:31.573Z,15.25
2023-03-22T11:59:31.598Z,15.23
2023-03-22T12:00:31.543Z,15.17
2023-03-22T12:01:31.524Z,15.21
2023-03-22T12:02:31.695Z,15.23
2023-03-22T12:03:31.763Z,15.28
2023-03-22T12:04:31.565Z,15.20
2023-03-22T12:05:31.531Z,15.09
2023-03-22T12:06:31.523Z,14.98
2023-03-22T12:07:31.456Z,15.07
2023-03-22T12:08:31.450Z,15.13
2023-03-22T12:09:31.449Z,15.07
2023-03-22T12:10:31.452Z,15.27
2023-03-22T12:11:31.425Z,15.14
2023-03-22T12:12:31.495Z,15.28
2023-03-22T12:13:31.388Z,15.49
2023-03-22T12:14:31.373Z,15.60
2023-03-22T12:15:31.364Z,15.67
2023-03-22T12:16:31.407Z,15.71
2023-03-22T12:17:31.439Z,15.82
2023-03-22T12:18:31.331Z,15.82
2023-03-22T12:19:31.327Z,15.74
2023-03-22T12:20:31.309Z,15.65
2023-03-22T12:21:31.337Z,15.57
2023-03-22T12:22:31.288Z,15.59
2023-03-22T12:23:31.305Z,15.72
2023-03-22T12:24:31.268Z,15.75
2023-03-22T12:25:31.278Z,15.75
2023-03-22T12:26:31.279Z,15.76
2023-03-22T12:27:31.234Z,15.72
2023-03-22T12:28:31.240Z,15.64
2023-03-22T12:29:31.243Z,15.68
2023-03-22T12:30:31.231Z,15.72
2023-03-22T12:31:31.268Z,15.75
2023-03-22T12:32:31.225Z,15.75
2023-03-22T12:33:31.231Z,15.80
2023-03-22T12:34:31.171Z,15.80
2023-03-22T12:35:31.160Z,15.76
2023-03-22T12:36:31.217Z,15.56
2023-03-22T12:37:31.534Z,15.60
2023-03-22T12:38:31.116Z,15.53
2023-03-22T12:39:31.110Z,15.50
2023-03-22T12:40:31.086Z,15.43
2023-03-22T12:41:31.084Z,15.32
2023-03-22T12:42:34.714Z,15.38
2023-03-22T12:43:31.051Z,15.53
2023-03-22T12:44:31.037Z,15.57
2023-03-22T12:45:31.063Z,15.57
2023-03-22T12:46:31.047Z,15.56
2023-03-22T12:47:31.054Z,15.56
2023-03-22T12:48:31.072Z,15.59
2023-03-22T12:49:30.981Z,15.60
2023-03-22T12:50:31.009Z,15.56
2023-03-22T12:51:30.971Z,15.54
2023-03-22T12:52:37.700Z,15.84
2023-03-22T12:53:31.954Z,15.93
2023-03-22T12:54:30.961Z,16.21
2023-03-22T12:55:30.939Z,16.21
2023-03-22T12:56:30.904Z,16.21
2023-03-22T12:57:30.893Z,16.33
2023-03-22T12:58:30.887Z,16.41
2023-03-22T12:59:30.881Z,16.38
2023-03-22T13:00:30.933Z,16.43
2023-03-22T13:01:30.967Z,16.33
2023-03-22T13:02:31.071Z,16.25
2023-03-22T13:03:30.892Z,16.35
2023-03-22T13:04:30.818Z,16.41
2023-03-22T13:05:30.823Z,16.35
2023-03-22T13:06:30.798Z,16.09